Time;durP1;ratioP1;P1;durP2;ratioP2;P2;SDS_P1;SDS_P2;PMS_P1;PMS_P2;Temp;Humidity;BMP_temperature;BMP_pressure;BME280_temperature;BME280_humidity;BME280_pressure;Samples;Min_cycle;Max_cycle;Signal;HPM_P1;HPM_P2
2024/03/18 00:01:52;;;;;;;19.58;9.93;;;;;;;10.35;100.00;100894.94;5041011;28;20036;-69
2024/03/18 00:04:17;;;;;;;16.90;9.32;;;;;;;10.31;100.00;100893.53;5041680;28;20033;-69
2024/03/18 00:06:43;;;;;;;20.98;9.88;;;;;;;10.25;100.00;100894.88;5039750;28;20044;-69
2024/03/18 00:09:08;;;;;;;17.88;10.13;;;;;;;10.26;100.00;100899.16;5042199;28;20100;-69
2024/03/18 00:11:34;;;;;;;16.77;9.82;;;;;;;10.26;100.00;100899.16;5049970;28;20527;-69
2024/03/18 00:13:59;;;;;;;22.02;10.50;;;;;;;10.29;100.00;100888.47;5046188;28;20459;-69
2024/03/18 00:16:25;;;;;;;21.27;11.07;;;;;;;10.32;100.00;100886.56;5047580;28;20032;-69
2024/03/18 00:18:51;;;;;;;19.27;10.85;;;;;;;10.29;100.00;100885.84;5043771;28;20123;-69
2024/03/18 00:21:16;;;;;;;20.50;9.93;;;;;;;10.28;100.00;100881.59;5046184;28;20553;-69
2024/03/18 00:23:42;;;;;;;17.27;9.95;;;;;;;10.27;100.00;100885.16;5043471;28;20024;-69
2024/03/18 00:26:08;;;;;;;21.55;10.65;;;;;;;10.28;100.00;100878.19;5040028;28;20025;-69
2024/03/18 00:28:33;;;;;;;24.20;10.30;;;;;;;10.29;100.00;100882.44;5042764;28;20476;-69
2024/03/18 00:30:58;;;;;;;24.67;10.18;;;;;;;10.32;100.00;100889.16;5043247;28;20110;-69
2024/03/18 00:33:24;;;;;;;18.75;10.43;;;;;;;10.34;100.00;100880.25;5049147;28;20082;-69
2024/03/18 00:35:56;;;;;;;19.02;11.10;;;;;;;10.37;100.00;100881.78;5048970;28;20365;-69
2024/03/18 00:38:22;;;;;;;19.20;10.15;;;;;;;10.39;100.00;100879.84;5043689;28;20061;-69
2024/03/18 00:40:56;;;;;;;15.60;9.60;;;;;;;10.41;100.00;100870.09;5046404;28;20063;-69
2024/03/18 00:43:24;;;;;;;18.08;10.45;;;;;;;10.41;100.00;100862.28;5043135;28;20182;-69
2024/03/18 00:45:51;;;;;;;17.33;9.93;;;;;;;10.46;100.00;100862.72;5046001;28;20108;-69
2024/03/18 00:48:16;;;;;;;20.75;10.23;;;;;;;10.47;100.00;100844.34;5043152;28;20485;-69
2024/03/18 00:50:42;;;;;;;19.92;10.27;;;;;;;10.50;100.00;100858.88;5045160;28;20029;-69
2024/03/18 00:53:07;;;;;;;17.55;9.23;;;;;;;10.56;100.00;100853.97;5044042;28;20049;-69
2024/03/18 00:55:33;;;;;;;19.85;9.75;;;;;;;10.61;100.00;100858.78;5045374;28;20033;-69
2024/03/18 00:57:59;;;;;;;15.15;9.00;;;;;;;10.61;100.00;100853.56;5043728;28;20571;-69
2024/03/18 01:00:25;;;;;;;16.23;9.30;;;;;;;10.56;100.00;100843.53;5044203;28;20033;-69
2024/03/18 01:02:50;;;;;;;19.05;10.23;;;;;;;10.52;100.00;100846.53;5046589;28;20364;-69
2024/03/18 01:05:15;;;;;;;18.85;9.35;;;;;;;10.52;100.00;100836.13;5042812;28;20046;-69
2024/03/18 01:07:41;;;;;;;20.58;10.50;;;;;;;10.52;100.00;100828.31;5045397;28;20029;-69
2024/03/18 01:10:07;;;;;;;20.92;10.40;;;;;;;10.48;100.00;100824.31;5048748;28;20480;-69
2024/03/18 01:12:32;;;;;;;18.80;10.18;;;;;;;10.46;100.00;100821.84;5049816;28;20033;-69
2024/03/18 01:14:58;;;;;;;17.58;9.82;;;;;;;10.50;100.00;100823.22;5046061;28;20048;-69
2024/03/18 01:17:23;;;;;;;18.90;10.73;;;;;;;10.50;100.00;100822.41;5053626;28;20108;-69
2024/03/18 01:19:49;;;;;;;18.48;10.13;;;;;;;10.55;100.00;100830.66;5055080;28;20503;-69
2024/03/18 01:22:14;;;;;;;17.20;10.35;;;;;;;10.60;100.00;100829.28;5043957;28;20115;-69
2024/03/18 01:24:41;;;;;;;16.52;9.07;;;;;;;10.60;100.00;100831.06;5049463;28;20040;-69
2024/03/18 01:27:06;;;;;;;16.95;8.88;;;;;;;10.52;100.00;100816.09;5041405;28;20035;-69
2024/03/18 01:29:31;;;;;;;17.10;10.07;;;;;;;10.51;100.00;100824.06;5050355;28;20032;-69
2024/03/18 01:31:57;;;;;;;13.82;8.55;;;;;;;10.46;100.00;100824.47;5042588;28;20156;-69
2024/03/18 01:34:23;;;;;;;15.02;7.82;;;;;;;10.42;100.00;100815.25;5040919;28;20069;-69
2024/03/18 01:36:49;;;;;;;15.00;9.57;;;;;;;10.42;100.00;100810.06;5048338;28;20112;-69
2024/03/18 01:39:19;;;;;;;20.98;10.48;;;;;;;10.42;100.00;100814.44;5055166;28;20217;-69
2024/03/18 01:41:45;;;;;;;16.65;10.23;;;;;;;10.43;100.00;100810.88;5046160;28;20651;-69
2024/03/18 01:44:10;;;;;;;20.63;10.80;;;;;;;10.44;100.00;100808.13;5047374;28;20048;-69
2024/03/18 01:46:36;;;;;;;19.45;9.40;;;;;;;10.47;100.00;100810.47;5042153;28;20115;-69
2024/03/18 01:49:01;;;;;;;17.48;9.13;;;;;;;10.47;100.00;100813.09;5046439;28;20033;-69
2024/03/18 01:51:28;;;;;;;18.40;10.32;;;;;;;10.48;100.00;100804.31;5049542;28;20029;-69
2024/03/18 01:53:54;;;;;;;16.88;9.50;;;;;;;10.49;100.00;100805.13;5046894;28;20025;-69
2024/03/18 01:56:20;;;;;;;18.05;10.73;;;;;;;10.47;100.00;100801.84;5043144;28;20147;-69
2024/03/18 01:58:49;;;;;;;17.33;9.45;;;;;;;10.41;100.00;100808.41;5049454;28;20032;-69
2024/03/18 02:01:15;;;;;;;16.52;10.05;;;;;;;10.39;100.00;100804.31;5050302;28;20037;-69
2024/03/18 02:03:40;;;;;;;18.58;9.90;;;;;;;10.35;100.00;100808.97;5050589;28;20394;-69
2024/03/18 02:06:06;;;;;;;16.08;9.23;;;;;;;10.33;100.00;100810.88;5045172;28;20033;-69
2024/03/18 02:08:33;;;;;;;17.00;9.02;;;;;;;10.29;100.00;100810.34;5052693;28;20051;-69
2024/03/18 02:10:58;;;;;;;17.08;9.50;;;;;;;10.24;100.00;100801.28;5051639;28;20116;-69
2024/03/18 02:13:23;;;;;;;17.20;9.10;;;;;;;10.19;100.00;100798.22;5049044;28;20136;-69
2024/03/18 02:15:49;;;;;;;25.60;9.43;;;;;;;10.17;100.00;100798.34;5048091;28;20777;-69
2024/03/18 02:18:14;;;;;;;15.32;8.65;;;;;;;10.19;100.00;100799.06;5046741;28;20552;-70
2024/03/18 02:20:40;;;;;;;19.25;9.15;;;;;;;10.17;100.00;100793.13;5045622;28;20020;-69
2024/03/18 02:23:06;;;;;;;18.30;9.23;;;;;;;10.12;100.00;100792.72;5040736;28;20033;-69
2024/03/18 02:25:31;;;;;;;17.13;9.80;;;;;;;10.07;100.00;100784.47;5042016;28;20609;-69
2024/03/18 02:27:57;;;;;;;18.27;10.27;;;;;;;10.04;100.00;100786.53;5047706;28;20111;-69
2024/03/18 02:30:22;;;;;;;15.27;8.88;;;;;;;10.02;100.00;100785.81;5049563;28;20037;-69
2024/03/18 02:32:48;;;;;;;17.65;8.30;;;;;;;10.04;100.00;100776.09;5047426;28;20111;-70
2024/03/18 02:35:17;;;;;;;17.10;9.55;;;;;;;10.00;100.00;100783.34;5042117;28;20037;-69
2024/03/18 02:37:44;;;;;;;18.17;9.40;;;;;;;9.96;100.00;100776.78;5045792;28;20033;-69
2024/03/18 02:40:10;;;;;;;15.82;10.25;;;;;;;9.88;100.00;100774.84;5041973;28;20060;-69
2024/03/18 02:42:37;;;;;;;18.85;10.02;;;;;;;9.86;100.00;100776.75;5042742;28;20115;-69
2024/03/18 02:45:08;;;;;;;24.77;10.95;;;;;;;9.84;100.00;100768.25;5036716;28;20025;-69
2024/03/18 02:47:38;;;;;;;21.48;11.80;;;;;;;9.80;100.00;100764.28;5044923;28;20044;-69
2024/03/18 02:50:08;;;;;;;17.23;10.35;;;;;;;9.79;100.00;100764.41;5038670;28;20025;-69
2024/03/18 02:52:36;;;;;;;18.27;10.13;;;;;;;9.77;100.00;100766.31;5041480;28;20025;-69
2024/03/18 02:55:01;;;;;;;19.02;10.57;;;;;;;9.80;100.00;100763.47;5044142;28;20512;-69
2024/03/18 02:57:27;;;;;;;19.80;11.65;;;;;;;9.78;100.00;100757.56;5040166;28;20037;-69
2024/03/18 02:59:52;;;;;;;22.02;10.63;;;;;;;9.77;100.00;100759.34;5036352;28;20118;-69
2024/03/18 03:02:18;;;;;;;17.92;11.13;;;;;;;9.74;100.00;100751.78;5042472;28;20037;-69
2024/03/18 03:04:44;;;;;;;22.20;11.10;;;;;;;9.72;100.00;100752.88;5040268;28;20033;-69
2024/03/18 03:07:10;;;;;;;22.75;9.70;;;;;;;9.69;100.00;100758.34;5043981;28;20111;-69
2024/03/18 03:09:36;;;;;;;19.13;8.95;;;;;;;9.65;100.00;100756.00;5038150;28;20131;-69
2024/03/18 03:12:02;;;;;;;16.45;9.65;;;;;;;9.63;100.00;100759.69;5047126;28;20047;-69
2024/03/18 03:14:27;;;;;;;19.55;9.60;;;;;;;9.58;100.00;100754.88;5039814;28;20484;-69
2024/03/18 03:16:53;;;;;;;16.05;9.50;;;;;;;9.55;100.00;100755.13;5040245;28;20037;-69
2024/03/18 03:19:19;;;;;;;19.95;9.40;;;;;;;9.52;100.00;100746.78;5038796;28;20110;-69
2024/03/18 03:21:45;;;;;;;18.73;10.43;;;;;;;9.47;100.00;100754.97;5037617;28;20493;-69
2024/03/18 03:24:11;;;;;;;19.98;10.52;;;;;;;9.39;100.00;100756.59;5037909;28;20112;-69
2024/03/18 03:26:36;;;;;;;16.80;8.98;;;;;;;9.36;100.00;100752.47;5040309;28;20095;-69
2024/03/18 03:29:03;;;;;;;19.13;9.18;;;;;;;9.28;100.00;100749.69;5039172;28;20040;-69
2024/03/18 03:31:29;;;;;;;17.33;8.55;;;;;;;9.22;100.00;100750.19;5034212;28;20047;-69
2024/03/18 03:33:54;;;;;;;21.05;10.52;;;;;;;9.14;100.00;100747.41;5045303;28;20025;-69
2024/03/18 03:36:19;;;;;;;17.77;10.43;;;;;;;9.07;100.00;100746.28;5044172;28;20502;-69
2024/03/18 03:38:45;;;;;;;18.17;10.15;;;;;;;9.01;100.00;100750.22;5045567;28;20033;-69
2024/03/18 03:41:10;;;;;;;18.15;9.38;;;;;;;8.96;100.00;100750.63;5043389;28;20029;-69
2024/03/18 03:43:36;;;;;;;18.60;9.55;;;;;;;8.90;100.00;100740.72;5046789;28;20060;-69
2024/03/18 03:46:06;;;;;;;17.42;9.90;;;;;;;8.87;100.00;100733.19;5038672;28;20033;-69
2024/03/18 03:48:32;;;;;;;17.13;8.38;;;;;;;8.82;100.00;100743.13;5040968;28;20044;-69
2024/03/18 03:50:57;;;;;;;21.40;9.85;;;;;;;8.81;100.00;100744.09;5037262;28;20037;-69
2024/03/18 03:53:27;;;;;;;17.38;10.02;;;;;;;8.88;100.00;100740.03;5040687;28;20033;-69
2024/03/18 03:55:57;;;;;;;22.45;10.32;;;;;;;8.89;100.00;100736.47;5039158;28;20377;-69
2024/03/18 03:58:24;;;;;;;22.38;9.55;;;;;;;8.81;100.00;100735.47;5039394;28;20033;-69
2024/03/18 04:00:50;;;;;;;17.50;9.48;;;;;;;8.73;100.00;100730.91;5041055;28;20060;-68
2024/03/18 04:03:18;;;;;;;22.42;9.82;;;;;;;8.71;100.00;100734.56;5040322;28;20084;-69
2024/03/18 04:05:44;;;;;;;18.02;9.10;;;;;;;8.70;100.00;100727.72;5040608;28;20494;-69
2024/03/18 04:08:09;;;;;;;18.27;9.32;;;;;;;8.66;100.00;100729.75;5038804;28;20052;-69
2024/03/18 04:10:35;;;;;;;20.55;10.18;;;;;;;8.66;100.00;100732.34;5041799;28;20025;-69
2024/03/18 04:13:00;;;;;;;15.82;9.73;;;;;;;8.68;100.00;100738.22;5038550;28;20053;-68
2024/03/18 04:15:27;;;;;;;18.17;9.93;;;;;;;8.75;100.00;100736.78;5044525;28;20068;-69
2024/03/18 04:17:53;;;;;;;17.17;10.05;;;;;;;8.82;100.00;100743.13;5042077;28;20037;-68
2024/03/18 04:20:18;;;;;;;17.88;9.18;;;;;;;8.93;100.00;100744.84;5042556;28;20038;-68
2024/03/18 04:22:51;;;;;;;20.42;10.75;;;;;;;9.05;100.00;100742.97;5040873;28;20028;-69
2024/03/18 04:25:21;;;;;;;15.93;9.50;;;;;;;9.11;100.00;100737.28;5046639;28;20037;-69
2024/03/18 04:27:47;;;;;;;26.83;9.90;;;;;;;9.14;100.00;100722.25;5046864;28;20101;-68
2024/03/18 04:30:18;;;;;;;19.60;10.18;;;;;;;9.14;100.00;100722.25;5044002;28;20036;-68
2024/03/18 04:32:45;;;;;;;19.88;10.55;;;;;;;9.14;100.00;100721.41;5040693;28;20075;-68
2024/03/18 04:35:11;;;;;;;27.98;11.43;;;;;;;9.16;100.00;100722.13;5045016;28;20033;-69
2024/03/18 04:37:46;;;;;;;21.95;11.20;;;;;;;9.22;100.00;100719.00;5037409;28;20061;-69
2024/03/18 04:40:16;;;;;;;22.40;11.13;;;;;;;9.43;100.00;100717.19;5038788;28;20068;-69
2024/03/18 04:42:42;;;;;;;28.85;12.27;;;;;;;9.62;100.00;100704.22;5037387;28;20030;-68
2024/03/18 04:45:09;;;;;;;23.08;11.52;;;;;;;9.63;100.00;100699.84;5044176;28;20037;-69
2024/03/18 04:47:39;;;;;;;21.42;11.30;;;;;;;9.57;100.00;100701.22;5044241;28;20032;-69
2024/03/18 04:50:08;;;;;;;20.45;10.45;;;;;;;9.54;100.00;100698.88;5039405;28;20057;-69
2024/03/18 04:52:34;;;;;;;30.52;12.00;;;;;;;9.55;100.00;100700.50;5038988;28;20032;-69
2024/03/18 04:54:59;;;;;;;24.30;10.80;;;;;;;9.59;100.00;100701.91;5037335;28;20591;-69
2024/03/18 04:57:24;;;;;;;24.70;11.82;;;;;;;9.64;100.00;100706.69;5038099;28;20122;-69
2024/03/18 04:59:50;;;;;;;25.17;12.32;;;;;;;9.67;100.00;100711.66;5036705;28;20037;-68
2024/03/18 05:02:15;;;;;;;23.48;12.48;;;;;;;9.71;100.00;100714.81;5042192;28;20186;-68
2024/03/18 05:04:41;;;;;;;26.27;11.18;;;;;;;9.74;100.00;100717.16;5042880;28;20036;-68
2024/03/18 05:07:06;;;;;;;17.85;10.18;;;;;;;9.77;100.00;100717.69;5043708;28;20435;-69
2024/03/18 05:09:34;;;;;;;22.95;10.65;;;;;;;9.81;100.00;100711.28;5040548;28;20043;-69
2024/03/18 05:11:59;;;;;;;20.65;10.65;;;;;;;9.83;100.00;100714.56;5049918;28;20103;-69
2024/03/18 05:14:25;;;;;;;18.35;9.65;;;;;;;9.85;100.00;100719.66;5046778;28;20179;-69
2024/03/18 05:16:50;;;;;;;17.67;9.60;;;;;;;9.85;100.00;100714.44;5045724;28;20033;-70
2024/03/18 05:19:15;;;;;;;15.38;8.20;;;;;;;9.86;100.00;100710.88;5042369;28;20034;-70
2024/03/18 05:21:41;;;;;;;17.20;9.30;;;;;;;9.87;100.00;100709.94;5052653;28;20035;-70
2024/03/18 05:24:06;;;;;;;16.13;9.43;;;;;;;9.88;100.00;100716.78;5058274;28;20111;-69
2024/03/18 05:26:32;;;;;;;23.35;10.43;;;;;;;9.84;100.00;100716.22;5049135;28;20030;-70
2024/03/18 05:28:57;;;;;;;19.60;11.15;;;;;;;10.01;100.00;100717.31;5037589;28;20403;-70
2024/03/18 05:31:23;;;;;;;20.40;10.63;;;;;;;10.03;100.00;100715.41;5054768;28;20099;-69
2024/03/18 05:33:48;;;;;;;24.98;11.93;;;;;;;10.13;100.00;100711.03;5045084;28;20045;-70
2024/03/18 05:36:13;;;;;;;27.30;12.52;;;;;;;10.21;100.00;100718.22;5042563;28;20134;-69
2024/03/18 05:38:39;;;;;;;18.75;11.02;;;;;;;10.19;100.00;100710.53;5055968;28;20132;-69
2024/03/18 05:41:04;;;;;;;23.35;10.65;;;;;;;10.13;100.00;100715.44;5050469;28;20487;-69
2024/03/18 05:43:30;;;;;;;17.52;9.77;;;;;;;10.05;100.00;100713.50;5051535;28;20041;-69
2024/03/18 05:45:55;;;;;;;20.40;11.18;;;;;;;10.09;100.00;100727.06;5043951;28;20362;-69
2024/03/18 05:48:20;;;;;;;22.58;11.13;;;;;;;10.12;100.00;100716.38;5044298;28;20346;-69
2024/03/18 05:50:46;;;;;;;22.52;10.95;;;;;;;10.15;100.00;100727.34;5045792;28;20041;-69
2024/03/18 05:53:14;;;;;;;18.25;10.15;;;;;;;10.16;100.00;100723.78;5042162;28;20397;-69
2024/03/18 05:55:39;;;;;;;20.73;9.82;;;;;;;10.16;100.00;100718.59;5041397;28;20052;-69
2024/03/18 05:58:04;;;;;;;17.27;10.05;;;;;;;10.17;100.00;100724.63;5050958;28;20053;-70
2024/03/18 06:00:30;;;;;;;18.58;9.25;;;;;;;10.18;100.00;100723.66;5041223;28;20109;-69
2024/03/18 06:02:55;;;;;;;21.35;9.75;;;;;;;10.21;100.00;100734.66;5042220;28;20063;-69
2024/03/18 06:05:21;;;;;;;16.25;9.45;;;;;;;10.24;100.00;100733.56;5042210;28;20029;-69
2024/03/18 06:07:46;;;;;;;27.02;10.68;;;;;;;10.23;100.00;100726.72;5035056;28;20053;-69
2024/03/18 06:10:14;;;;;;;20.35;10.43;;;;;;;10.26;100.00;100727.25;5042069;28;20531;-69
2024/03/18 06:12:40;;;;;;;19.08;10.57;;;;;;;10.28;100.00;100725.34;5037291;28;20371;-69
2024/03/18 06:15:07;;;;;;;19.80;10.95;;;;;;;10.28;100.00;100725.34;5037602;28;20717;-69
2024/03/18 06:17:32;;;;;;;27.77;9.90;;;;;;;10.33;100.00;100724.13;5035898;28;20082;-69
2024/03/18 06:19:58;;;;;;;21.35;10.00;;;;;;;10.45;100.00;100723.00;5037550;28;20029;-69
2024/03/18 06:22:26;;;;;;;23.83;11.15;;;;;;;10.56;100.00;100718.47;5041420;28;20104;-69
2024/03/18 06:27:36;;;;;;;18.15;9.98;;;;;;;10.72;100.00;100715.31;5043518;28;20039;-69
2024/03/18 06:30:02;;;;;;;19.67;9.88;;;;;;;10.76;100.00;100710.66;5044468;28;20027;-69
2024/03/18 06:32:28;;;;;;;21.75;9.88;;;;;;;10.76;100.00;100715.88;5048307;28;20044;-69
2024/03/18 06:34:53;;;;;;;18.08;9.60;;;;;;;10.75;100.00;100709.81;5047301;28;20094;-69
2024/03/18 06:37:19;;;;;;;25.63;9.50;;;;;;;10.80;100.00;100712.84;5041471;28;20087;-69
2024/03/18 06:39:44;;;;;;;18.35;10.05;;;;;;;10.85;100.00;100699.38;5040981;28;20192;-69
2024/03/18 06:42:11;;;;;;;17.35;9.43;;;;;;;10.93;100.00;100705.53;5044622;28;20030;-69
2024/03/18 06:44:42;;;;;;;21.02;9.88;;;;;;;11.07;100.00;100695.63;5047931;28;20044;-69
2024/03/18 06:47:08;;;;;;;19.10;11.00;;;;;;;11.14;100.00;100696.69;5040641;28;20071;-69
2024/03/18 06:49:36;;;;;;;16.02;9.73;;;;;;;11.21;100.00;100689.94;5045070;28;20396;-70
2024/03/18 06:52:02;;;;;;;18.33;9.90;;;;;;;11.21;100.00;100679.50;5044490;28;20029;-69
2024/03/18 06:54:27;;;;;;;18.92;10.27;;;;;;;11.22;100.00;100681.97;5044601;28;20107;-69
2024/03/18 06:56:53;;;;;;;20.30;10.07;;;;;;;11.27;100.00;100681.56;5045129;28;20036;-69
2024/03/18 06:59:18;;;;;;;21.25;9.70;;;;;;;11.34;100.00;100672.19;5042799;28;20036;-69
2024/03/18 07:01:44;;;;;;;20.30;10.10;;;;;;;11.40;100.00;100670.75;5043087;28;20422;-68
2024/03/18 07:04:09;;;;;;;20.25;10.23;;;;;;;11.47;100.00;100664.81;5046269;28;20037;-68
2024/03/18 07:06:35;;;;;;;20.90;10.80;;;;;;;11.50;100.00;100671.53;5039420;28;20459;-68
2024/03/18 07:09:00;;;;;;;18.77;9.85;;;;;;;11.61;100.00;100664.34;5044096;28;20036;-68
2024/03/18 07:11:25;;;;;;;20.75;11.45;;;;;;;11.80;100.00;100658.22;5043907;28;20036;-68
2024/03/18 07:13:51;;;;;;;19.10;10.73;;;;;;;12.02;100.00;100658.75;5042668;28;20143;-68
2024/03/18 07:16:18;;;;;;;21.02;10.27;;;;;;;12.19;100.00;100650.91;5039302;28;20116;-69
2024/03/18 07:18:44;;;;;;;18.52;10.73;;;;;;;12.36;100.00;100653.63;5046811;28;20162;-69
2024/03/18 07:21:11;;;;;;;16.90;9.45;;;;;;;12.49;100.00;100660.13;5038430;28;20124;-68
2024/03/18 07:23:37;;;;;;;17.02;9.75;;;;;;;12.62;100.00;100655.31;5040116;28;20026;-69
2024/03/18 07:26:04;;;;;;;18.50;10.95;;;;;;;12.71;100.00;100653.59;5042112;28;20502;-70
2024/03/18 07:28:33;;;;;;;18.60;9.88;;;;;;;12.63;100.00;100658.75;5037598;28;20033;-70
2024/03/18 07:31:03;;;;;;;24.25;10.73;;;;;;;12.45;100.00;100660.56;5042683;28;20857;-69
2024/03/18 07:33:29;;;;;;;18.75;10.05;;;;;;;12.49;100.00;100656.69;5045419;28;20393;-69
2024/03/18 07:35:56;;;;;;;17.77;9.85;;;;;;;12.63;100.00;100664.81;5045184;28;20057;-69
2024/03/18 07:38:21;;;;;;;21.77;10.98;;;;;;;12.77;100.00;100662.56;5044286;28;20040;-68
2024/03/18 07:40:48;;;;;;;18.23;10.00;;;;;;;12.90;100.00;100652.53;5049888;28;20432;-68
2024/03/18 07:43:14;;;;;;;20.38;9.68;;;;;;;13.00;100.00;100655.03;5048846;28;20057;-68
2024/03/18 07:45:40;;;;;;;20.98;10.00;;;;;;;13.07;100.00;100664.72;5048161;28;20079;-68
2024/03/18 07:48:07;;;;;;;14.98;9.20;;;;;;;13.17;100.00;100664.66;5044826;28;20040;-68
2024/03/18 07:50:35;;;;;;;15.65;9.77;;;;;;;13.01;100.00;100669.75;5043515;28;20098;-69
2024/03/18 07:53:01;;;;;;;22.23;11.25;;;;;;;12.98;100.00;100667.44;5044649;28;20529;-68
2024/03/18 07:55:27;;;;;;;23.20;10.05;;;;;;;13.14;100.00;100670.16;5045296;28;20538;-69
2024/03/18 07:57:53;;;;;;;20.48;9.93;;;;;;;13.44;100.00;100667.03;5041125;28;20037;-68
2024/03/18 08:00:19;;;;;;;24.65;10.35;;;;;;;13.77;100.00;100661.91;5038433;28;20052;-68
2024/03/18 08:02:44;;;;;;;22.23;9.68;;;;;;;13.92;100.00;100668.97;5044463;28;20040;-68
2024/03/18 08:05:11;;;;;;;18.10;8.93;;;;;;;13.81;100.00;100666.66;5039748;28;20029;-69
2024/03/18 08:07:37;;;;;;;14.45;8.32;;;;;;;13.72;100.00;100664.16;5040682;28;20063;-68
2024/03/18 08:10:03;;;;;;;20.83;9.20;;;;;;;13.61;100.00;100663.50;5040067;28;20045;-69
2024/03/18 08:12:28;;;;;;;15.40;8.95;;;;;;;13.61;100.00;100673.97;5042911;28;20025;-68
2024/03/18 08:14:54;;;;;;;18.75;9.07;;;;;;;13.56;100.00;100668.41;5047053;28;20091;-69
2024/03/18 08:17:20;;;;;;;20.20;8.20;;;;;;;13.42;100.00;100665.56;5045341;28;20082;-68
2024/03/18 08:19:45;;;;;;;15.68;9.90;;;;;;;13.32;100.00;100668.28;5047274;28;20029;-68
2024/03/18 08:22:13;;;;;;;20.23;8.50;;;;;;;13.27;99.31;100665.31;5046365;28;20065;-69
2024/03/18 08:24:40;;;;;;;19.80;8.90;;;;;;;13.27;100.00;100660.91;5045408;28;20025;-69
2024/03/18 08:27:05;;;;;;;17.40;8.82;;;;;;;13.25;100.00;100656.81;5045343;28;20041;-69
2024/03/18 08:29:31;;;;;;;28.58;9.18;;;;;;;13.47;100.00;100651.03;5052265;28;20032;-69
2024/03/18 08:31:56;;;;;;;17.23;9.10;;;;;;;13.65;99.81;100652.72;5051095;28;20053;-69
2024/03/18 08:34:22;;;;;;;20.55;10.27;;;;;;;13.63;95.11;100649.44;5046323;28;20091;-69
2024/03/18 08:36:48;;;;;;;17.15;9.27;;;;;;;13.59;96.37;100648.94;5045807;28;20025;-68
2024/03/18 08:39:14;;;;;;;19.80;10.30;;;;;;;13.75;97.39;100648.97;5047845;28;20036;-68
2024/03/18 08:41:40;;;;;;;17.50;9.63;;;;;;;13.82;91.74;100646.53;5035280;28;20030;-69
2024/03/18 08:44:06;;;;;;;23.55;10.48;;;;;;;13.83;95.71;100648.16;5036923;28;20036;-69
2024/03/18 08:46:32;;;;;;;19.67;10.95;;;;;;;13.74;94.58;100642.09;5044482;28;20388;-69
2024/03/18 08:48:58;;;;;;;24.13;11.10;;;;;;;13.76;95.42;100640.13;5045824;28;20484;-68
2024/03/18 08:51:23;;;;;;;23.48;11.18;;;;;;;13.83;94.53;100632.44;5036063;28;20043;-68
2024/03/18 08:53:49;;;;;;;20.95;10.60;;;;;;;14.04;96.44;100632.00;5043165;28;20033;-68
2024/03/18 08:56:14;;;;;;;23.35;10.77;;;;;;;14.22;95.99;100630.84;5040882;28;20401;-69
2024/03/18 08:58:40;;;;;;;25.35;11.57;;;;;;;14.69;95.13;100632.78;5039781;28;20028;-68
2024/03/18 09:01:08;;;;;;;20.92;10.95;;;;;;;14.91;94.04;100631.25;5036936;28;20492;-68
2024/03/18 09:03:34;;;;;;;19.55;9.93;;;;;;;15.16;93.43;100624.09;5044680;28;20090;-69
2024/03/18 09:06:00;;;;;;;25.10;10.15;;;;;;;15.21;93.24;100622.59;5043408;28;20116;-69
2024/03/18 09:08:25;;;;;;;20.48;9.52;;;;;;;15.25;92.91;100618.66;5043521;28;20047;-69
2024/03/18 09:10:51;;;;;;;19.20;8.95;;;;;;;15.26;93.01;100615.03;5045803;28;20146;-70
2024/03/18 09:13:16;;;;;;;19.48;8.57;;;;;;;15.07;89.97;100614.66;5043505;28;20029;-69
2024/03/18 09:15:42;;;;;;;15.88;9.57;;;;;;;15.08;91.52;100613.66;5047945;28;20503;-69
2024/03/18 09:18:08;;;;;;;15.00;8.85;;;;;;;15.30;91.86;100617.31;5043120;28;20038;-69
2024/03/18 09:20:33;;;;;;;13.15;7.35;;;;;;;15.52;90.25;100609.50;5047470;28;20538;-69
2024/03/18 09:22:59;;;;;;;19.05;8.05;;;;;;;15.68;89.26;100607.78;5038646;28;20384;-70
2024/03/18 09:25:24;;;;;;;17.10;6.60;;;;;;;15.82;89.67;100604.41;5042484;28;20079;-69
2024/03/18 09:27:49;;;;;;;12.05;6.90;;;;;;;15.89;89.72;100603.53;5040140;28;20029;-69
2024/03/18 09:30:18;;;;;;;14.50;7.47;;;;;;;15.89;88.76;100605.34;5042177;28;20143;-69
2024/03/18 09:32:43;;;;;;;14.95;6.80;;;;;;;15.84;88.28;100608.50;5039494;28;20048;-69
2024/03/18 09:35:09;;;;;;;14.05;7.53;;;;;;;15.76;83.87;100610.34;5048166;28;20041;-69
2024/03/18 09:37:35;;;;;;;13.00;6.47;;;;;;;15.83;85.84;100606.03;5048579;28;20502;-69
2024/03/18 09:40:01;;;;;;;11.52;5.47;;;;;;;15.96;87.73;100602.84;5046383;28;20040;-68
2024/03/18 09:42:28;;;;;;;11.32;5.47;;;;;;;15.85;85.95;100598.81;5045979;28;20025;-69
2024/03/18 09:44:54;;;;;;;9.73;5.30;;;;;;;15.85;86.63;100594.38;5046363;28;20033;-71
2024/03/18 09:47:22;;;;;;;11.48;6.00;;;;;;;16.07;87.40;100597.97;5042035;28;20055;-70
2024/03/18 09:49:49;;;;;;;7.18;4.57;;;;;;;16.28;85.87;100592.03;5036846;28;20041;-69
2024/03/18 09:52:16;;;;;;;10.70;4.85;;;;;;;16.42;85.89;100587.81;5042311;28;20064;-70
2024/03/18 09:54:45;;;;;;;7.57;4.80;;;;;;;16.46;85.72;100586.47;5041721;28;20186;-70
2024/03/18 09:57:15;;;;;;;9.90;5.28;;;;;;;16.46;85.64;100586.47;5044509;28;20032;-70
2024/03/18 09:59:41;;;;;;;9.13;4.65;;;;;;;16.34;85.14;100587.88;5048686;28;20052;-70
2024/03/18 10:02:15;;;;;;;11.32;4.32;;;;;;;16.22;83.25;100582.22;5043413;28;20033;-70
2024/03/18 10:04:40;;;;;;;9.40;5.32;;;;;;;16.23;85.48;100581.25;5049020;28;20029;-70
2024/03/18 10:07:14;;;;;;;11.80;5.22;;;;;;;16.17;84.09;100582.75;5046229;28;20029;-70
2024/03/18 10:09:43;;;;;;;12.48;4.97;;;;;;;16.15;85.92;100579.50;5047060;28;20159;-70
2024/03/18 10:12:12;;;;;;;7.65;4.93;;;;;;;16.06;85.00;100587.66;5043914;28;20592;-70
2024/03/18 10:14:37;;;;;;;11.35;5.57;;;;;;;16.00;84.82;100573.41;5045488;28;20038;-70
2024/03/18 10:17:03;;;;;;;9.68;5.22;;;;;;;15.99;80.74;100566.53;5045423;28;20028;-70
2024/03/18 10:19:30;;;;;;;9.48;5.53;;;;;;;15.83;80.47;100571.91;5047111;28;20098;-70
2024/03/18 10:21:56;;;;;;;10.50;5.28;;;;;;;15.67;84.37;100561.50;5048215;28;20025;-70
2024/03/18 10:24:21;;;;;;;9.13;5.65;;;;;;;15.39;74.49;100564.63;5047817;28;20480;-70
2024/03/18 10:26:48;;;;;;;12.00;4.80;;;;;;;15.46;82.13;100562.94;5046252;28;20048;-70
2024/03/18 10:29:14;;;;;;;9.13;5.40;;;;;;;15.49;80.92;100562.59;5043362;28;20378;-69
2024/03/18 10:31:40;;;;;;;8.05;4.85;;;;;;;15.53;81.01;100557.81;5047042;28;20048;-70
2024/03/18 10:34:06;;;;;;;8.48;5.25;;;;;;;15.67;81.63;100556.25;5043859;28;20129;-70
2024/03/18 10:36:35;;;;;;;8.57;5.00;;;;;;;15.79;83.14;100562.72;5048289;28;20524;-70
2024/03/18 10:39:16;;;;;;;10.85;4.97;;;;;;;15.80;81.29;100561.72;5044718;28;20032;-70
2024/03/18 10:41:44;;;;;;;10.88;4.40;;;;;;;15.71;83.27;100560.16;5042751;28;20029;-70
2024/03/18 10:44:18;;;;;;;10.20;4.82;;;;;;;15.60;83.36;100553.50;5044004;28;20033;-67
2024/03/18 10:46:44;;;;;;;9.88;5.28;;;;;;;15.50;82.57;100553.72;5046849;28;20035;-67
2024/03/18 10:49:16;;;;;;;9.95;4.75;;;;;;;15.45;83.16;100555.22;5044134;28;20116;-67
2024/03/18 10:51:44;;;;;;;7.90;4.55;;;;;;;15.39;85.26;100559.38;5045694;28;20024;-67
2024/03/18 10:54:15;;;;;;;8.55;4.80;;;;;;;15.31;86.01;100553.34;5038636;28;20393;-67
2024/03/18 10:56:45;;;;;;;8.15;4.20;;;;;;;15.18;86.41;100559.13;5047122;28;20111;-67
2024/03/18 10:59:18;;;;;;;9.70;4.88;;;;;;;15.02;85.29;100554.00;5039242;28;20045;-67
2024/03/18 11:01:45;;;;;;;11.68;4.93;;;;;;;14.91;87.15;100557.81;5047012;28;20063;-67
2024/03/18 11:04:21;;;;;;;10.88;5.93;;;;;;;14.72;87.31;100556.38;5042447;28;20099;-67
2024/03/18 11:06:52;;;;;;;15.32;5.70;;;;;;;14.63;88.71;100544.31;5045622;28;20170;-67
2024/03/18 11:09:19;;;;;;;8.68;4.90;;;;;;;14.55;89.46;100554.81;5045100;28;20052;-67